Saint-Gedeon, Canada
Current Conditions -  °F | °C
As of 8:00 PM on Saturday 25 Oct 2014 (Local Time) from CYRJ Reporting Station
Light Rain Light Rain  
Wind Chill: 46°   Ceiling: 4500
Heat Index: 46°   Visibility: 25mi
Dew Point: 43°   Wind: 3mph
Humidity: 87%   Direction: 150°SSE
Pressure: 29.4"   Gusts: NA
Location:  48.48°N, 71.78°W
Report Text: CYRJ 260000Z 15003KT 25SM -RA OVC045 08/06 A2940 RMK SC8 SLP962
Loading
Personal Weather Stations






























Interactive Weather Map
Tropical Storm Tracking
New forecast layout! Learn more

10-Day Weather Forecast

Advertisements
Track Severe Weather on mobile